sensor_id;sensor_type;location;lat;lon;timestamp;P1;durP1;ratioP1;P2;durP2;ratioP2
57565;SDS011;63999;43.882;-0.310;2022-12-18T00:01:16;26.63;;;6.90;;
57565;SDS011;63999;43.882;-0.310;2022-12-18T00:03:44;17.75;;;6.47;;
57565;SDS011;63999;43.882;-0.310;2022-12-18T00:06:10;9.32;;;5.68;;
57565;SDS011;63999;43.882;-0.310;2022-12-18T00:08:37;6.75;;;5.80;;
57565;SDS011;63999;43.882;-0.310;2022-12-18T00:11:07;11.77;;;5.72;;
57565;SDS011;63999;43.882;-0.310;2022-12-18T00:13:35;19.65;;;6.63;;
57565;SDS011;63999;43.882;-0.310;2022-12-18T00:16:02;20.27;;;6.65;;
57565;SDS011;63999;43.882;-0.310;2022-12-18T00:18:32;7.55;;;6.75;;
57565;SDS011;63999;43.882;-0.310;2022-12-18T00:21:01;15.30;;;6.47;;
57565;SDS011;63999;43.882;-0.310;2022-12-18T00:23:29;24.00;;;7.45;;
57565;SDS011;63999;43.882;-0.310;2022-12-18T00:25:59;21.48;;;6.40;;
57565;SDS011;63999;43.882;-0.310;2022-12-18T00:28:26;12.48;;;6.60;;
57565;SDS011;63999;43.882;-0.310;2022-12-18T00:30:59;13.05;;;6.53;;
57565;SDS011;63999;43.882;-0.310;2022-12-18T00:33:29;10.45;;;6.00;;
57565;SDS011;63999;43.882;-0.310;2022-12-18T00:35:59;38.65;;;7.10;;
57565;SDS011;63999;43.882;-0.310;2022-12-18T00:38:29;25.15;;;7.18;;
57565;SDS011;63999;43.882;-0.310;2022-12-18T00:40:55;31.65;;;7.20;;
57565;SDS011;63999;43.882;-0.310;2022-12-18T00:43:20;16.00;;;6.65;;
57565;SDS011;63999;43.882;-0.310;2022-12-18T00:45:46;15.77;;;6.57;;
57565;SDS011;63999;43.882;-0.310;2022-12-18T00:48:12;23.73;;;6.85;;
57565;SDS011;63999;43.882;-0.310;2022-12-18T00:50:38;33.25;;;7.05;;
57565;SDS011;63999;43.882;-0.310;2022-12-18T00:53:04;13.48;;;6.47;;
57565;SDS011;63999;43.882;-0.310;2022-12-18T00:55:29;22.92;;;7.57;;
57565;SDS011;63999;43.882;-0.310;2022-12-18T00:57:55;29.75;;;7.57;;
57565;SDS011;63999;43.882;-0.310;2022-12-18T01:00:21;24.10;;;7.38;;
57565;SDS011;63999;43.882;-0.310;2022-12-18T01:02:47;28.50;;;7.22;;
57565;SDS011;63999;43.882;-0.310;2022-12-18T01:05:13;37.05;;;7.88;;
57565;SDS011;63999;43.882;-0.310;2022-12-18T01:07:39;13.50;;;7.43;;
57565;SDS011;63999;43.882;-0.310;2022-12-18T01:10:07;17.80;;;7.40;;
57565;SDS011;63999;43.882;-0.310;2022-12-18T01:12:36;13.20;;;7.30;;
57565;SDS011;63999;43.882;-0.310;2022-12-18T01:15:02;39.70;;;7.72;;
57565;SDS011;63999;43.882;-0.310;2022-12-18T01:17:28;24.67;;;8.02;;
57565;SDS011;63999;43.882;-0.310;2022-12-18T01:19:54;25.13;;;7.75;;
57565;SDS011;63999;43.882;-0.310;2022-12-18T01:22:20;21.02;;;8.05;;
57565;SDS011;63999;43.882;-0.310;2022-12-18T01:24:46;28.98;;;7.82;;
57565;SDS011;63999;43.882;-0.310;2022-12-18T01:27:11;26.08;;;7.90;;
57565;SDS011;63999;43.882;-0.310;2022-12-18T01:29:37;25.80;;;8.23;;
57565;SDS011;63999;43.882;-0.310;2022-12-18T01:32:03;18.98;;;7.50;;
57565;SDS011;63999;43.882;-0.310;2022-12-18T01:34:29;18.92;;;8.10;;
57565;SDS011;63999;43.882;-0.310;2022-12-18T01:36:54;30.25;;;8.43;;
57565;SDS011;63999;43.882;-0.310;2022-12-18T01:39:20;44.05;;;8.82;;
57565;SDS011;63999;43.882;-0.310;2022-12-18T01:41:46;19.58;;;7.53;;
57565;SDS011;63999;43.882;-0.310;2022-12-18T01:50:17;28.75;;;8.32;;
57565;SDS011;63999;43.882;-0.310;2022-12-18T01:52:45;30.50;;;8.60;;
57565;SDS011;63999;43.882;-0.310;2022-12-18T01:55:14;47.90;;;8.90;;
57565;SDS011;63999;43.882;-0.310;2022-12-18T01:57:43;21.00;;;8.25;;
57565;SDS011;63999;43.882;-0.310;2022-12-18T02:00:12;40.65;;;7.95;;
57565;SDS011;63999;43.882;-0.310;2022-12-18T02:02:41;12.90;;;8.68;;
57565;SDS011;63999;43.882;-0.310;2022-12-18T02:05:10;26.90;;;8.43;;
57565;SDS011;63999;43.882;-0.310;2022-12-18T02:07:41;25.02;;;8.32;;
57565;SDS011;63999;43.882;-0.310;2022-12-18T02:10:26;19.45;;;7.72;;
57565;SDS011;63999;43.882;-0.310;2022-12-18T02:13:11;70.63;;;9.13;;
57565;SDS011;63999;43.882;-0.310;2022-12-18T02:18:17;17.15;;;7.68;;
57565;SDS011;63999;43.882;-0.310;2022-12-18T02:23:51;18.48;;;8.27;;
57565;SDS011;63999;43.882;-0.310;2022-12-18T02:26:30;22.80;;;7.68;;
57565;SDS011;63999;43.882;-0.310;2022-12-18T02:29:03;21.20;;;7.35;;
57565;SDS011;63999;43.882;-0.310;2022-12-18T02:31:39;13.23;;;6.45;;
57565;SDS011;63999;43.882;-0.310;2022-12-18T02:34:12;10.93;;;7.28;;
57565;SDS011;63999;43.882;-0.310;2022-12-18T02:36:40;19.20;;;7.93;;
57565;SDS011;63999;43.882;-0.310;2022-12-18T02:39:09;28.45;;;8.15;;
57565;SDS011;63999;43.882;-0.310;2022-12-18T02:41:36;15.48;;;8.05;;
57565;SDS011;63999;43.882;-0.310;2022-12-18T02:44:06;25.70;;;8.10;;
57565;SDS011;63999;43.882;-0.310;2022-12-18T02:46:35;19.02;;;6.93;;
57565;SDS011;63999;43.882;-0.310;2022-12-18T02:49:20;37.92;;;8.27;;
57565;SDS011;63999;43.882;-0.310;2022-12-18T02:52:00;14.10;;;7.80;;
57565;SDS011;63999;43.882;-0.310;2022-12-18T03:00:12;8.48;;;7.68;;
57565;SDS011;63999;43.882;-0.310;2022-12-18T03:05:20;15.80;;;8.43;;
57565;SDS011;63999;43.882;-0.310;2022-12-18T03:07:53;24.85;;;8.85;;
57565;SDS011;63999;43.882;-0.310;2022-12-18T03:10:28;14.60;;;7.95;;
57565;SDS011;63999;43.882;-0.310;2022-12-18T03:13:07;14.95;;;8.80;;
57565;SDS011;63999;43.882;-0.310;2022-12-18T03:15:47;16.15;;;7.90;;
57565;SDS011;63999;43.882;-0.310;2022-12-18T03:18:23;13.90;;;8.65;;
57565;SDS011;63999;43.882;-0.310;2022-12-18T03:20:55;15.30;;;8.05;;
57565;SDS011;63999;43.882;-0.310;2022-12-18T03:23:27;15.57;;;8.30;;
57565;SDS011;63999;43.882;-0.310;2022-12-18T03:25:58;24.42;;;8.32;;
57565;SDS011;63999;43.882;-0.310;2022-12-18T03:28:30;15.15;;;8.32;;
57565;SDS011;63999;43.882;-0.310;2022-12-18T03:31:01;15.10;;;8.40;;
57565;SDS011;63999;43.882;-0.310;2022-12-18T03:33:34;12.45;;;8.07;;
57565;SDS011;63999;43.882;-0.310;2022-12-18T03:36:12;8.80;;;7.85;;
57565;SDS011;63999;43.882;-0.310;2022-12-18T03:38:38;11.25;;;7.70;;
57565;SDS011;63999;43.882;-0.310;2022-12-18T03:47:13;13.70;;;7.95;;
57565;SDS011;63999;43.882;-0.310;2022-12-18T03:50:13;8.60;;;7.75;;
57565;SDS011;63999;43.882;-0.310;2022-12-18T03:55:09;7.90;;;7.10;;
57565;SDS011;63999;43.882;-0.310;2022-12-18T03:57:37;8.25;;;7.45;;
57565;SDS011;63999;43.882;-0.310;2022-12-18T04:00:08;7.90;;;7.10;;
57565;SDS011;63999;43.882;-0.310;2022-12-18T04:02:37;8.35;;;7.53;;
57565;SDS011;63999;43.882;-0.310;2022-12-18T04:05:05;9.07;;;7.82;;
57565;SDS011;63999;43.882;-0.310;2022-12-18T04:07:32;8.48;;;7.57;;
57565;SDS011;63999;43.882;-0.310;2022-12-18T04:09:58;7.75;;;7.03;;
57565;SDS011;63999;43.882;-0.310;2022-12-18T04:12:26;8.60;;;7.80;;
57565;SDS011;63999;43.882;-0.310;2022-12-18T04:14:54;8.73;;;7.93;;
57565;SDS011;63999;43.882;-0.310;2022-12-18T04:17:20;7.10;;;6.40;;
57565;SDS011;63999;43.882;-0.310;2022-12-18T04:19:46;8.55;;;7.65;;
57565;SDS011;63999;43.882;-0.310;2022-12-18T04:22:12;8.77;;;7.28;;
57565;SDS011;63999;43.882;-0.310;2022-12-18T04:24:38;8.20;;;7.40;;
57565;SDS011;63999;43.882;-0.310;2022-12-18T04:27:03;8.88;;;7.97;;
57565;SDS011;63999;43.882;-0.310;2022-12-18T04:29:29;8.70;;;7.43;;
57565;SDS011;63999;43.882;-0.310;2022-12-18T04:31:55;8.10;;;7.30;;
57565;SDS011;63999;43.882;-0.310;2022-12-18T04:34:21;7.75;;;6.97;;
57565;SDS011;63999;43.882;-0.310;2022-12-18T04:36:47;8.45;;;7.65;;
57565;SDS011;63999;43.882;-0.310;2022-12-18T04:39:13;8.38;;;7.50;;
57565;SDS011;63999;43.882;-0.310;2022-12-18T04:41:39;8.68;;;7.88;;
57565;SDS011;63999;43.882;-0.310;2022-12-18T04:44:06;7.82;;;7.05;;
57565;SDS011;63999;43.882;-0.310;2022-12-18T04:46:31;7.47;;;6.78;;
57565;SDS011;63999;43.882;-0.310;2022-12-18T04:48:57;8.10;;;7.30;;
57565;SDS011;63999;43.882;-0.310;2022-12-18T04:51:23;7.55;;;6.78;;
57565;SDS011;63999;43.882;-0.310;2022-12-18T04:53:49;8.82;;;7.18;;
57565;SDS011;63999;43.882;-0.310;2022-12-18T04:56:15;7.57;;;6.65;;
57565;SDS011;63999;43.882;-0.310;2022-12-18T04:58:42;8.05;;;7.28;;
57565;SDS011;63999;43.882;-0.310;2022-12-18T05:01:10;8.00;;;7.20;;
57565;SDS011;63999;43.882;-0.310;2022-12-18T05:03:37;8.68;;;7.75;;
57565;SDS011;63999;43.882;-0.310;2022-12-18T05:06:04;7.97;;;7.18;;
57565;SDS011;63999;43.882;-0.310;2022-12-18T05:08:30;8.68;;;7.70;;
57565;SDS011;63999;43.882;-0.310;2022-12-18T05:11:00;7.72;;;6.93;;
57565;SDS011;63999;43.882;-0.310;2022-12-18T05:13:27;7.72;;;7.03;;
57565;SDS011;63999;43.882;-0.310;2022-12-18T05:15:54;7.25;;;6.55;;
57565;SDS011;63999;43.882;-0.310;2022-12-18T05:18:20;9.77;;;6.63;;
57565;SDS011;63999;43.882;-0.310;2022-12-18T05:20:46;8.63;;;7.03;;
57565;SDS011;63999;43.882;-0.310;2022-12-18T05:23:12;8.45;;;7.55;;
57565;SDS011;63999;43.882;-0.310;2022-12-18T05:25:38;7.43;;;6.47;;
57565;SDS011;63999;43.882;-0.310;2022-12-18T05:28:04;7.68;;;6.88;;
57565;SDS011;63999;43.882;-0.310;2022-12-18T05:30:29;6.50;;;5.82;;
57565;SDS011;63999;43.882;-0.310;2022-12-18T05:32:55;7.45;;;6.40;;
57565;SDS011;63999;43.882;-0.310;2022-12-18T05:35:21;7.00;;;6.30;;
57565;SDS011;63999;43.882;-0.310;2022-12-18T05:37:47;7.07;;;6.20;;
57565;SDS011;63999;43.882;-0.310;2022-12-18T05:40:12;7.78;;;6.97;;
57565;SDS011;63999;43.882;-0.310;2022-12-18T05:42:38;7.28;;;6.57;;
57565;SDS011;63999;43.882;-0.310;2022-12-18T05:45:04;6.82;;;5.95;;
57565;SDS011;63999;43.882;-0.310;2022-12-18T05:47:31;7.88;;;6.47;;
57565;SDS011;63999;43.882;-0.310;2022-12-18T05:49:57;9.27;;;6.47;;
57565;SDS011;63999;43.882;-0.310;2022-12-18T05:52:22;6.68;;;5.97;;
57565;SDS011;63999;43.882;-0.310;2022-12-18T05:54:48;10.88;;;6.38;;
57565;SDS011;63999;43.882;-0.310;2022-12-18T05:57:14;11.10;;;6.60;;
57565;SDS011;63999;43.882;-0.310;2022-12-18T05:59:40;7.70;;;6.00;;
57565;SDS011;63999;43.882;-0.310;2022-12-18T06:02:05;10.57;;;6.32;;
57565;SDS011;63999;43.882;-0.310;2022-12-18T06:04:31;6.45;;;5.65;;
57565;SDS011;63999;43.882;-0.310;2022-12-18T06:06:57;9.02;;;6.07;;
57565;SDS011;63999;43.882;-0.310;2022-12-18T06:09:23;7.90;;;5.80;;
57565;SDS011;63999;43.882;-0.310;2022-12-18T06:11:51;7.10;;;6.40;;
57565;SDS011;63999;43.882;-0.310;2022-12-18T06:14:17;6.32;;;5.70;;
57565;SDS011;63999;43.882;-0.310;2022-12-18T06:16:43;6.60;;;5.78;;
57565;SDS011;63999;43.882;-0.310;2022-12-18T06:19:12;8.02;;;5.30;;
57565;SDS011;63999;43.882;-0.310;2022-12-18T06:21:40;7.10;;;5.47;;
57565;SDS011;63999;43.882;-0.310;2022-12-18T06:24:06;7.18;;;5.45;;
57565;SDS011;63999;43.882;-0.310;2022-12-18T06:26:32;6.35;;;5.00;;
57565;SDS011;63999;43.882;-0.310;2022-12-18T06:28:58;10.07;;;5.50;;
57565;SDS011;63999;43.882;-0.310;2022-12-18T06:31:24;8.02;;;5.57;;
57565;SDS011;63999;43.882;-0.310;2022-12-18T06:33:50;6.50;;;5.80;;
57565;SDS011;63999;43.882;-0.310;2022-12-18T06:36:16;6.68;;;5.40;;
57565;SDS011;63999;43.882;-0.310;2022-12-18T06:38:43;6.65;;;5.13;;
57565;SDS011;63999;43.882;-0.310;2022-12-18T06:41:10;5.40;;;4.90;;
57565;SDS011;63999;43.882;-0.310;2022-12-18T06:43:37;5.50;;;5.00;;
57565;SDS011;63999;43.882;-0.310;2022-12-18T06:46:03;6.07;;;5.47;;
57565;SDS011;63999;43.882;-0.310;2022-12-18T06:48:30;6.10;;;5.50;;
57565;SDS011;63999;43.882;-0.310;2022-12-18T06:50:57;7.88;;;5.85;;
57565;SDS011;63999;43.882;-0.310;2022-12-18T06:53:23;6.95;;;5.75;;
57565;SDS011;63999;43.882;-0.310;2022-12-18T06:55:49;7.05;;;6.15;;
57565;SDS011;63999;43.882;-0.310;2022-12-18T06:58:15;6.15;;;5.55;;
57565;SDS011;63999;43.882;-0.310;2022-12-18T07:00:41;6.03;;;5.43;;
57565;SDS011;63999;43.882;-0.310;2022-12-18T07:03:06;7.90;;;5.53;;
57565;SDS011;63999;43.882;-0.310;2022-12-18T07:05:32;6.47;;;5.78;;
57565;SDS011;63999;43.882;-0.310;2022-12-18T07:07:58;5.85;;;5.25;;
57565;SDS011;63999;43.882;-0.310;2022-12-18T07:10:24;5.63;;;5.03;;
57565;SDS011;63999;43.882;-0.310;2022-12-18T07:12:50;6.18;;;5.57;;
57565;SDS011;63999;43.882;-0.310;2022-12-18T07:15:16;6.32;;;5.47;;
57565;SDS011;63999;43.882;-0.310;2022-12-18T07:17:42;6.18;;;5.57;;
57565;SDS011;63999;43.882;-0.310;2022-12-18T07:20:08;5.88;;;5.10;;
57565;SDS011;63999;43.882;-0.310;2022-12-18T07:22:34;7.90;;;5.70;;
57565;SDS011;63999;43.882;-0.310;2022-12-18T07:25:00;5.97;;;5.38;;
57565;SDS011;63999;43.882;-0.310;2022-12-18T07:27:26;6.65;;;5.88;;
57565;SDS011;63999;43.882;-0.310;2022-12-18T07:29:51;6.40;;;5.72;;
57565;SDS011;63999;43.882;-0.310;2022-12-18T07:32:17;6.85;;;5.82;;
57565;SDS011;63999;43.882;-0.310;2022-12-18T07:34:43;7.30;;;5.97;;
57565;SDS011;63999;43.882;-0.310;2022-12-18T07:37:10;6.78;;;5.72;;
57565;SDS011;63999;43.882;-0.310;2022-12-18T07:39:36;7.13;;;5.88;;
57565;SDS011;63999;43.882;-0.310;2022-12-18T07:42:02;6.93;;;6.22;;
57565;SDS011;63999;43.882;-0.310;2022-12-18T07:44:46;7.25;;;6.40;;
57565;SDS011;63999;43.882;-0.310;2022-12-18T07:47:12;7.55;;;6.40;;
57565;SDS011;63999;43.882;-0.310;2022-12-18T07:49:38;6.95;;;6.07;;
57565;SDS011;63999;43.882;-0.310;2022-12-18T07:52:03;7.35;;;6.43;;
57565;SDS011;63999;43.882;-0.310;2022-12-18T07:54:29;7.90;;;6.82;;
57565;SDS011;63999;43.882;-0.310;2022-12-18T07:56:55;9.25;;;7.97;;
57565;SDS011;63999;43.882;-0.310;2022-12-18T07:59:21;7.10;;;6.35;;
57565;SDS011;63999;43.882;-0.310;2022-12-18T08:01:46;7.50;;;6.55;;
57565;SDS011;63999;43.882;-0.310;2022-12-18T08:04:12;9.57;;;6.22;;
57565;SDS011;63999;43.882;-0.310;2022-12-18T08:06:38;7.38;;;6.22;;
57565;SDS011;63999;43.882;-0.310;2022-12-18T08:09:03;7.65;;;5.85;;
57565;SDS011;63999;43.882;-0.310;2022-12-18T08:11:31;6.70;;;5.75;;
57565;SDS011;63999;43.882;-0.310;2022-12-18T08:14:02;6.68;;;5.65;;
57565;SDS011;63999;43.882;-0.310;2022-12-18T08:16:28;7.63;;;6.13;;
57565;SDS011;63999;43.882;-0.310;2022-12-18T08:18:55;7.97;;;5.75;;
57565;SDS011;63999;43.882;-0.310;2022-12-18T08:21:37;7.32;;;6.38;;
57565;SDS011;63999;43.882;-0.310;2022-12-18T08:24:04;6.50;;;5.60;;
57565;SDS011;63999;43.882;-0.310;2022-12-18T08:26:30;7.57;;;6.65;;
57565;SDS011;63999;43.882;-0.310;2022-12-18T08:28:57;6.47;;;5.85;;
57565;SDS011;63999;43.882;-0.310;2022-12-18T08:31:24;6.60;;;5.57;;
57565;SDS011;63999;43.882;-0.310;2022-12-18T08:33:52;7.97;;;6.18;;
57565;SDS011;63999;43.882;-0.310;2022-12-18T08:36:19;7.53;;;5.47;;
57565;SDS011;63999;43.882;-0.310;2022-12-18T08:38:45;5.90;;;5.05;;
57565;SDS011;63999;43.882;-0.310;2022-12-18T08:41:12;6.72;;;5.78;;
57565;SDS011;63999;43.882;-0.310;2022-12-18T08:43:40;6.35;;;5.65;;
57565;SDS011;63999;43.882;-0.310;2022-12-18T08:46:25;6.22;;;5.30;;
57565;SDS011;63999;43.882;-0.310;2022-12-18T08:48:53;6.60;;;5.40;;
57565;SDS011;63999;43.882;-0.310;2022-12-18T08:51:23;5.65;;;5.05;;
57565;SDS011;63999;43.882;-0.310;2022-12-18T08:53:48;6.13;;;5.10;;
57565;SDS011;63999;43.882;-0.310;2022-12-18T08:56:14;5.45;;;4.95;;
57565;SDS011;63999;43.882;-0.310;2022-12-18T08:58:41;5.57;;;5.00;;
57565;SDS011;63999;43.882;-0.310;2022-12-18T09:01:08;8.07;;;5.40;;
57565;SDS011;63999;43.882;-0.310;2022-12-18T09:03:36;5.70;;;5.07;;
57565;SDS011;63999;43.882;-0.310;2022-12-18T09:06:02;6.65;;;4.90;;
57565;SDS011;63999;43.882;-0.310;2022-12-18T09:08:29;5.57;;;4.75;;
57565;SDS011;63999;43.882;-0.310;2022-12-18T09:10:55;5.25;;;4.65;;
57565;SDS011;63999;43.882;-0.310;2022-12-18T09:13:21;5.47;;;4.25;;
57565;SDS011;63999;43.882;-0.310;2022-12-18T09:15:48;5.55;;;4.95;;
57565;SDS011;63999;43.882;-0.310;2022-12-18T09:18:16;5.13;;;4.40;;
57565;SDS011;63999;43.882;-0.310;2022-12-18T09:20:43;5.97;;;5.10;;
57565;SDS011;63999;43.882;-0.310;2022-12-18T09:23:09;6.03;;;5.28;;
57565;SDS011;63999;43.882;-0.310;2022-12-18T09:25:36;5.30;;;4.65;;
57565;SDS011;63999;43.882;-0.310;2022-12-18T09:28:06;6.07;;;5.05;;
57565;SDS011;63999;43.882;-0.310;2022-12-18T09:30:39;5.97;;;4.55;;
57565;SDS011;63999;43.882;-0.310;2022-12-18T09:33:06;5.22;;;4.72;;
57565;SDS011;63999;43.882;-0.310;2022-12-18T09:35:32;8.50;;;5.25;;
57565;SDS011;63999;43.882;-0.310;2022-12-18T09:38:00;5.45;;;4.60;;
57565;SDS011;63999;43.882;-0.310;2022-12-18T09:40:27;6.18;;;4.43;;
57565;SDS011;63999;43.882;-0.310;2022-12-18T09:42:59;5.95;;;4.35;;
57565;SDS011;63999;43.882;-0.310;2022-12-18T09:45:35;7.05;;;4.25;;
57565;SDS011;63999;43.882;-0.310;2022-12-18T09:51:16;8.98;;;4.68;;
57565;SDS011;63999;43.882;-0.310;2022-12-18T09:53:59;7.78;;;3.92;;
57565;SDS011;63999;43.882;-0.310;2022-12-18T09:56:33;4.97;;;4.20;;
57565;SDS011;63999;43.882;-0.310;2022-12-18T09:59:05;4.75;;;3.88;;
57565;SDS011;63999;43.882;-0.310;2022-12-18T10:01:31;6.85;;;3.90;;
57565;SDS011;63999;43.882;-0.310;2022-12-18T10:03:58;4.45;;;3.58;;
57565;SDS011;63999;43.882;-0.310;2022-12-18T10:09:20;5.45;;;3.35;;
57565;SDS011;63999;43.882;-0.310;2022-12-18T10:12:07;5.07;;;3.20;;
57565;SDS011;63999;43.882;-0.310;2022-12-18T10:17:50;4.43;;;3.15;;
57565;SDS011;63999;43.882;-0.310;2022-12-18T10:23:11;3.80;;;3.05;;
57565;SDS011;63999;43.882;-0.310;2022-12-18T10:28:25;5.05;;;3.00;;
57565;SDS011;63999;43.882;-0.310;2022-12-18T10:30:54;4.97;;;3.30;;
57565;SDS011;63999;43.882;-0.310;2022-12-18T10:33:21;5.82;;;3.33;;
57565;SDS011;63999;43.882;-0.310;2022-12-18T10:35:50;4.32;;;3.28;;
57565;SDS011;63999;43.882;-0.310;2022-12-18T10:43:21;4.07;;;2.88;;
57565;SDS011;63999;43.882;-0.310;2022-12-18T10:48:49;5.30;;;2.78;;
57565;SDS011;63999;43.882;-0.310;2022-12-18T10:51:25;2.40;;;1.80;;
57565;SDS011;63999;43.882;-0.310;2022-12-18T10:56:26;2.88;;;2.10;;
57565;SDS011;63999;43.882;-0.310;2022-12-18T10:59:01;2.63;;;2.08;;
57565;SDS011;63999;43.882;-0.310;2022-12-18T11:01:46;4.10;;;1.73;;
57565;SDS011;63999;43.882;-0.310;2022-12-18T11:04:33;1.80;;;1.48;;
57565;SDS011;63999;43.882;-0.310;2022-12-18T11:07:04;2.63;;;1.65;;
57565;SDS011;63999;43.882;-0.310;2022-12-18T11:09:32;2.03;;;1.70;;
57565;SDS011;63999;43.882;-0.310;2022-12-18T11:12:02;2.80;;;1.90;;
57565;SDS011;63999;43.882;-0.310;2022-12-18T11:14:43;4.05;;;2.00;;
57565;SDS011;63999;43.882;-0.310;2022-12-18T11:17:20;1.40;;;1.30;;
57565;SDS011;63999;43.882;-0.310;2022-12-18T11:19:53;1.95;;;1.38;;
57565;SDS011;63999;43.882;-0.310;2022-12-18T11:27:30;2.80;;;2.03;;
57565;SDS011;63999;43.882;-0.310;2022-12-18T11:30:10;2.90;;;1.60;;
57565;SDS011;63999;43.882;-0.310;2022-12-18T11:32:45;1.75;;;1.27;;
57565;SDS011;63999;43.882;-0.310;2022-12-18T11:35:39;2.83;;;1.40;;
57565;SDS011;63999;43.882;-0.310;2022-12-18T11:38:20;2.47;;;2.20;;
57565;SDS011;63999;43.882;-0.310;2022-12-18T11:44:35;1.70;;;1.60;;
57565;SDS011;63999;43.882;-0.310;2022-12-18T11:50:13;2.75;;;1.40;;
57565;SDS011;63999;43.882;-0.310;2022-12-18T11:52:44;2.53;;;1.80;;
57565;SDS011;63999;43.882;-0.310;2022-12-18T11:55:14;2.33;;;1.65;;
57565;SDS011;63999;43.882;-0.310;2022-12-18T11:58:05;2.50;;;1.67;;
57565;SDS011;63999;43.882;-0.310;2022-12-18T12:00:34;2.88;;;2.47;;
57565;SDS011;63999;43.882;-0.310;2022-12-18T12:16:41;2.00;;;1.50;;
57565;SDS011;63999;43.882;-0.310;2022-12-18T12:27:58;2.55;;;1.70;;
57565;SDS011;63999;43.882;-0.310;2022-12-18T12:33:50;2.08;;;1.88;;
57565;SDS011;63999;43.882;-0.310;2022-12-18T12:39:07;2.35;;;2.15;;
57565;SDS011;63999;43.882;-0.310;2022-12-18T12:41:38;2.67;;;1.85;;
57565;SDS011;63999;43.882;-0.310;2022-12-18T12:44:26;3.38;;;2.28;;
57565;SDS011;63999;43.882;-0.310;2022-12-18T12:46:56;3.65;;;2.78;;
57565;SDS011;63999;43.882;-0.310;2022-12-18T12:49:27;4.07;;;2.53;;
57565;SDS011;63999;43.882;-0.310;2022-12-18T12:52:07;3.70;;;2.63;;
57565;SDS011;63999;43.882;-0.310;2022-12-18T12:54:37;3.10;;;2.78;;
57565;SDS011;63999;43.882;-0.310;2022-12-18T12:57:15;3.28;;;2.53;;
57565;SDS011;63999;43.882;-0.310;2022-12-18T13:02:35;4.03;;;3.25;;
57565;SDS011;63999;43.882;-0.310;2022-12-18T13:07:49;3.85;;;2.40;;
57565;SDS011;63999;43.882;-0.310;2022-12-18T13:10:26;4.00;;;3.17;;
57565;SDS011;63999;43.882;-0.310;2022-12-18T13:12:59;6.47;;;3.58;;
57565;SDS011;63999;43.882;-0.310;2022-12-18T13:18:30;5.85;;;3.25;;
57565;SDS011;63999;43.882;-0.310;2022-12-18T13:25:51;5.28;;;3.22;;
57565;SDS011;63999;43.882;-0.310;2022-12-18T13:28:21;5.55;;;3.17;;
57565;SDS011;63999;43.882;-0.310;2022-12-18T13:31:08;4.50;;;3.10;;
57565;SDS011;63999;43.882;-0.310;2022-12-18T13:33:42;4.25;;;3.28;;
57565;SDS011;63999;43.882;-0.310;2022-12-18T13:39:08;4.10;;;3.13;;
57565;SDS011;63999;43.882;-0.310;2022-12-18T13:41:47;4.35;;;3.10;;
57565;SDS011;63999;43.882;-0.310;2022-12-18T13:44:34;4.43;;;3.13;;
57565;SDS011;63999;43.882;-0.310;2022-12-18T13:47:01;5.30;;;3.80;;
57565;SDS011;63999;43.882;-0.310;2022-12-18T13:52:03;4.75;;;3.13;;
57565;SDS011;63999;43.882;-0.310;2022-12-18T13:54:51;7.32;;;3.85;;
57565;SDS011;63999;43.882;-0.310;2022-12-18T13:57:28;4.70;;;2.78;;
57565;SDS011;63999;43.882;-0.310;2022-12-18T14:00:14;4.93;;;3.42;;
57565;SDS011;63999;43.882;-0.310;2022-12-18T14:02:47;6.15;;;3.08;;
57565;SDS011;63999;43.882;-0.310;2022-12-18T14:05:29;4.32;;;3.28;;
57565;SDS011;63999;43.882;-0.310;2022-12-18T14:08:01;6.68;;;3.17;;
57565;SDS011;63999;43.882;-0.310;2022-12-18T14:10:30;5.90;;;3.63;;
57565;SDS011;63999;43.882;-0.310;2022-12-18T14:12:57;5.47;;;3.33;;
57565;SDS011;63999;43.882;-0.310;2022-12-18T14:15:33;5.15;;;3.42;;
57565;SDS011;63999;43.882;-0.310;2022-12-18T14:20:52;5.05;;;3.20;;
57565;SDS011;63999;43.882;-0.310;2022-12-18T14:23:33;8.90;;;3.90;;
57565;SDS011;63999;43.882;-0.310;2022-12-18T14:28:54;5.95;;;3.50;;
57565;SDS011;63999;43.882;-0.310;2022-12-18T14:31:28;7.00;;;3.50;;
57565;SDS011;63999;43.882;-0.310;2022-12-18T14:33:56;4.93;;;3.40;;
57565;SDS011;63999;43.882;-0.310;2022-12-18T14:36:24;6.07;;;3.67;;
57565;SDS011;63999;43.882;-0.310;2022-12-18T14:38:53;6.40;;;3.58;;
57565;SDS011;63999;43.882;-0.310;2022-12-18T14:41:21;5.30;;;3.30;;
57565;SDS011;63999;43.882;-0.310;2022-12-18T14:43:48;3.97;;;3.33;;
57565;SDS011;63999;43.882;-0.310;2022-12-18T14:51:56;5.28;;;3.60;;
57565;SDS011;63999;43.882;-0.310;2022-12-18T14:54:30;4.32;;;3.30;;
57565;SDS011;63999;43.882;-0.310;2022-12-18T14:56:59;5.68;;;3.65;;
57565;SDS011;63999;43.882;-0.310;2022-12-18T14:59:28;6.65;;;3.60;;
57565;SDS011;63999;43.882;-0.310;2022-12-18T15:04:35;5.00;;;3.60;;
57565;SDS011;63999;43.882;-0.310;2022-12-18T15:10:08;6.93;;;3.77;;
57565;SDS011;63999;43.882;-0.310;2022-12-18T15:12:38;4.85;;;3.50;;
57565;SDS011;63999;43.882;-0.310;2022-12-18T15:18:11;5.95;;;3.50;;
57565;SDS011;63999;43.882;-0.310;2022-12-18T15:20:58;6.47;;;3.25;;
57565;SDS011;63999;43.882;-0.310;2022-12-18T15:26:08;4.20;;;3.20;;
57565;SDS011;63999;43.882;-0.310;2022-12-18T15:28:45;7.63;;;3.40;;
57565;SDS011;63999;43.882;-0.310;2022-12-18T15:33:58;5.57;;;3.22;;
57565;SDS011;63999;43.882;-0.310;2022-12-18T15:36:28;3.92;;;3.03;;
57565;SDS011;63999;43.882;-0.310;2022-12-18T15:38:55;4.07;;;3.08;;
57565;SDS011;63999;43.882;-0.310;2022-12-18T15:41:23;4.18;;;3.13;;
57565;SDS011;63999;43.882;-0.310;2022-12-18T15:43:50;4.05;;;2.88;;
57565;SDS011;63999;43.882;-0.310;2022-12-18T15:46:18;5.18;;;3.30;;
57565;SDS011;63999;43.882;-0.310;2022-12-18T15:48:49;5.80;;;3.05;;
57565;SDS011;63999;43.882;-0.310;2022-12-18T15:53:48;6.72;;;3.85;;
57565;SDS011;63999;43.882;-0.310;2022-12-18T15:56:17;5.82;;;3.40;;
57565;SDS011;63999;43.882;-0.310;2022-12-18T15:59:04;5.55;;;3.28;;
57565;SDS011;63999;43.882;-0.310;2022-12-18T16:01:37;4.78;;;3.00;;
57565;SDS011;63999;43.882;-0.310;2022-12-18T16:04:04;5.75;;;3.10;;
57565;SDS011;63999;43.882;-0.310;2022-12-18T16:06:31;4.57;;;3.22;;
57565;SDS011;63999;43.882;-0.310;2022-12-18T16:09:02;5.97;;;3.30;;
57565;SDS011;63999;43.882;-0.310;2022-12-18T16:11:29;4.07;;;3.10;;
57565;SDS011;63999;43.882;-0.310;2022-12-18T16:14:04;6.03;;;3.47;;
57565;SDS011;63999;43.882;-0.310;2022-12-18T16:16:45;5.70;;;3.00;;
57565;SDS011;63999;43.882;-0.310;2022-12-18T16:19:12;5.20;;;3.30;;
57565;SDS011;63999;43.882;-0.310;2022-12-18T16:21:38;5.60;;;3.17;;
57565;SDS011;63999;43.882;-0.310;2022-12-18T16:24:04;6.22;;;3.15;;
57565;SDS011;63999;43.882;-0.310;2022-12-18T16:26:30;7.28;;;3.70;;
57565;SDS011;63999;43.882;-0.310;2022-12-18T16:28:56;6.93;;;3.40;;
57565;SDS011;63999;43.882;-0.310;2022-12-18T16:31:22;6.32;;;3.42;;
57565;SDS011;63999;43.882;-0.310;2022-12-18T16:33:47;6.28;;;3.30;;
57565;SDS011;63999;43.882;-0.310;2022-12-18T16:36:13;5.20;;;3.22;;
57565;SDS011;63999;43.882;-0.310;2022-12-18T16:38:39;4.85;;;3.30;;
57565;SDS011;63999;43.882;-0.310;2022-12-18T16:41:18;6.15;;;3.55;;
57565;SDS011;63999;43.882;-0.310;2022-12-18T16:43:56;4.90;;;3.33;;
57565;SDS011;63999;43.882;-0.310;2022-12-18T16:46:22;5.20;;;3.40;;
57565;SDS011;63999;43.882;-0.310;2022-12-18T16:48:48;5.50;;;3.35;;
57565;SDS011;63999;43.882;-0.310;2022-12-18T16:51:13;5.10;;;3.40;;
57565;SDS011;63999;43.882;-0.310;2022-12-18T16:53:39;5.97;;;3.50;;
57565;SDS011;63999;43.882;-0.310;2022-12-18T16:56:05;4.03;;;3.40;;
57565;SDS011;63999;43.882;-0.310;2022-12-18T16:58:31;6.40;;;3.50;;
57565;SDS011;63999;43.882;-0.310;2022-12-18T17:00:58;5.82;;;3.35;;
57565;SDS011;63999;43.882;-0.310;2022-12-18T17:03:24;5.32;;;3.63;;
57565;SDS011;63999;43.882;-0.310;2022-12-18T17:05:50;7.75;;;3.28;;